sensor_id;sensor_type;location;lat;lon;timestamp;P1;durP1;ratioP1;P2;durP2;ratioP2
19251;SDS011;9760;50.944;5.304;2023-04-06T00:01:07;31.93;;;14.47;;
19251;SDS011;9760;50.944;5.304;2023-04-06T00:03:33;30.30;;;12.83;;
19251;SDS011;9760;50.944;5.304;2023-04-06T00:05:59;24.30;;;12.33;;
19251;SDS011;9760;50.944;5.304;2023-04-06T00:08:25;27.50;;;12.67;;
19251;SDS011;9760;50.944;5.304;2023-04-06T00:10:51;36.37;;;13.77;;
19251;SDS011;9760;50.944;5.304;2023-04-06T00:13:16;35.90;;;13.57;;
19251;SDS011;9760;50.944;5.304;2023-04-06T00:15:42;32.53;;;13.20;;
19251;SDS011;9760;50.944;5.304;2023-04-06T00:18:08;28.63;;;14.00;;
19251;SDS011;9760;50.944;5.304;2023-04-06T00:20:34;33.23;;;13.37;;
19251;SDS011;9760;50.944;5.304;2023-04-06T00:23:00;28.30;;;13.40;;
19251;SDS011;9760;50.944;5.304;2023-04-06T00:25:26;27.60;;;13.00;;
19251;SDS011;9760;50.944;5.304;2023-04-06T00:27:51;29.20;;;13.43;;
19251;SDS011;9760;50.944;5.304;2023-04-06T00:30:17;28.93;;;13.13;;
19251;SDS011;9760;50.944;5.304;2023-04-06T00:32:43;31.63;;;13.27;;
19251;SDS011;9760;50.944;5.304;2023-04-06T00:35:09;26.10;;;13.70;;
19251;SDS011;9760;50.944;5.304;2023-04-06T00:37:35;31.37;;;14.13;;
19251;SDS011;9760;50.944;5.304;2023-04-06T00:40:01;30.13;;;12.47;;
19251;SDS011;9760;50.944;5.304;2023-04-06T00:42:27;28.50;;;13.33;;
19251;SDS011;9760;50.944;5.304;2023-04-06T00:45:00;27.77;;;13.70;;
19251;SDS011;9760;50.944;5.304;2023-04-06T00:47:26;34.93;;;14.23;;
19251;SDS011;9760;50.944;5.304;2023-04-06T00:49:53;35.50;;;14.20;;
19251;SDS011;9760;50.944;5.304;2023-04-06T00:52:19;35.17;;;13.30;;
19251;SDS011;9760;50.944;5.304;2023-04-06T00:54:45;31.97;;;14.90;;
19251;SDS011;9760;50.944;5.304;2023-04-06T00:57:11;29.90;;;14.23;;
19251;SDS011;9760;50.944;5.304;2023-04-06T00:59:38;26.97;;;13.60;;
19251;SDS011;9760;50.944;5.304;2023-04-06T01:02:04;28.57;;;13.77;;
19251;SDS011;9760;50.944;5.304;2023-04-06T01:04:30;27.17;;;14.07;;
19251;SDS011;9760;50.944;5.304;2023-04-06T01:06:56;31.23;;;13.30;;
19251;SDS011;9760;50.944;5.304;2023-04-06T01:09:22;29.93;;;13.87;;
19251;SDS011;9760;50.944;5.304;2023-04-06T01:11:47;34.13;;;14.10;;
19251;SDS011;9760;50.944;5.304;2023-04-06T01:14:13;34.10;;;15.30;;
19251;SDS011;9760;50.944;5.304;2023-04-06T01:16:40;36.07;;;14.47;;
19251;SDS011;9760;50.944;5.304;2023-04-06T01:19:10;32.93;;;14.03;;
19251;SDS011;9760;50.944;5.304;2023-04-06T01:21:37;31.07;;;13.33;;
19251;SDS011;9760;50.944;5.304;2023-04-06T01:24:03;35.30;;;15.17;;
19251;SDS011;9760;50.944;5.304;2023-04-06T01:26:30;30.97;;;14.20;;
19251;SDS011;9760;50.944;5.304;2023-04-06T01:28:57;28.73;;;14.03;;
19251;SDS011;9760;50.944;5.304;2023-04-06T01:31:23;37.37;;;14.67;;
19251;SDS011;9760;50.944;5.304;2023-04-06T01:33:49;31.23;;;13.83;;
19251;SDS011;9760;50.944;5.304;2023-04-06T01:36:15;33.03;;;15.57;;
19251;SDS011;9760;50.944;5.304;2023-04-06T01:38:41;34.17;;;15.53;;
19251;SDS011;9760;50.944;5.304;2023-04-06T01:41:07;33.30;;;15.17;;
19251;SDS011;9760;50.944;5.304;2023-04-06T01:43:33;30.37;;;14.13;;
19251;SDS011;9760;50.944;5.304;2023-04-06T01:45:59;33.13;;;15.20;;
19251;SDS011;9760;50.944;5.304;2023-04-06T01:48:26;35.93;;;16.20;;
19251;SDS011;9760;50.944;5.304;2023-04-06T01:50:52;36.77;;;16.40;;
19251;SDS011;9760;50.944;5.304;2023-04-06T01:53:18;37.30;;;15.47;;
19251;SDS011;9760;50.944;5.304;2023-04-06T01:55:43;33.50;;;16.00;;
19251;SDS011;9760;50.944;5.304;2023-04-06T01:58:09;33.73;;;15.70;;
19251;SDS011;9760;50.944;5.304;2023-04-06T02:00:35;32.23;;;15.47;;
19251;SDS011;9760;50.944;5.304;2023-04-06T02:03:00;35.53;;;14.90;;
19251;SDS011;9760;50.944;5.304;2023-04-06T02:05:27;29.13;;;14.60;;
19251;SDS011;9760;50.944;5.304;2023-04-06T02:07:54;36.17;;;15.50;;
19251;SDS011;9760;50.944;5.304;2023-04-06T02:10:20;36.20;;;15.63;;
19251;SDS011;9760;50.944;5.304;2023-04-06T02:12:46;34.37;;;15.93;;
19251;SDS011;9760;50.944;5.304;2023-04-06T02:15:11;32.10;;;15.57;;
19251;SDS011;9760;50.944;5.304;2023-04-06T02:17:38;35.90;;;15.63;;
19251;SDS011;9760;50.944;5.304;2023-04-06T02:20:04;34.73;;;15.37;;
19251;SDS011;9760;50.944;5.304;2023-04-06T02:22:31;35.87;;;16.57;;
19251;SDS011;9760;50.944;5.304;2023-04-06T02:24:56;34.37;;;16.50;;
19251;SDS011;9760;50.944;5.304;2023-04-06T02:27:22;33.70;;;15.57;;
19251;SDS011;9760;50.944;5.304;2023-04-06T02:29:48;34.87;;;15.67;;
19251;SDS011;9760;50.944;5.304;2023-04-06T02:32:13;40.70;;;16.10;;
19251;SDS011;9760;50.944;5.304;2023-04-06T02:34:39;38.80;;;17.47;;
19251;SDS011;9760;50.944;5.304;2023-04-06T02:37:05;32.40;;;15.23;;
19251;SDS011;9760;50.944;5.304;2023-04-06T02:39:30;35.33;;;16.00;;
19251;SDS011;9760;50.944;5.304;2023-04-06T02:41:56;32.07;;;16.07;;
19251;SDS011;9760;50.944;5.304;2023-04-06T02:44:22;33.97;;;15.73;;
19251;SDS011;9760;50.944;5.304;2023-04-06T02:46:47;36.43;;;15.03;;
19251;SDS011;9760;50.944;5.304;2023-04-06T02:49:13;36.63;;;16.27;;
19251;SDS011;9760;50.944;5.304;2023-04-06T02:51:39;32.73;;;16.07;;
19251;SDS011;9760;50.944;5.304;2023-04-06T02:54:05;36.63;;;16.67;;
19251;SDS011;9760;50.944;5.304;2023-04-06T02:56:30;31.27;;;15.37;;
19251;SDS011;9760;50.944;5.304;2023-04-06T02:58:56;32.47;;;15.43;;
19251;SDS011;9760;50.944;5.304;2023-04-06T03:01:22;39.57;;;16.97;;
19251;SDS011;9760;50.944;5.304;2023-04-06T03:03:47;31.93;;;15.03;;
19251;SDS011;9760;50.944;5.304;2023-04-06T03:06:13;34.23;;;16.27;;
19251;SDS011;9760;50.944;5.304;2023-04-06T03:08:39;31.90;;;15.17;;
19251;SDS011;9760;50.944;5.304;2023-04-06T03:11:05;33.03;;;14.80;;
19251;SDS011;9760;50.944;5.304;2023-04-06T03:13:30;35.03;;;15.60;;
19251;SDS011;9760;50.944;5.304;2023-04-06T03:15:56;39.13;;;15.40;;
19251;SDS011;9760;50.944;5.304;2023-04-06T03:18:22;33.70;;;15.87;;
19251;SDS011;9760;50.944;5.304;2023-04-06T03:20:49;33.97;;;14.67;;
19251;SDS011;9760;50.944;5.304;2023-04-06T03:23:15;34.50;;;14.77;;
19251;SDS011;9760;50.944;5.304;2023-04-06T03:25:41;36.63;;;15.60;;
19251;SDS011;9760;50.944;5.304;2023-04-06T03:28:07;33.23;;;14.93;;
19251;SDS011;9760;50.944;5.304;2023-04-06T03:30:33;35.57;;;15.60;;
19251;SDS011;9760;50.944;5.304;2023-04-06T03:32:59;28.50;;;14.83;;
19251;SDS011;9760;50.944;5.304;2023-04-06T03:35:25;36.27;;;14.37;;
19251;SDS011;9760;50.944;5.304;2023-04-06T03:37:50;33.10;;;15.80;;
19251;SDS011;9760;50.944;5.304;2023-04-06T03:40:16;32.43;;;14.47;;
19251;SDS011;9760;50.944;5.304;2023-04-06T03:42:42;33.63;;;14.83;;
19251;SDS011;9760;50.944;5.304;2023-04-06T03:45:08;30.30;;;13.67;;
19251;SDS011;9760;50.944;5.304;2023-04-06T03:47:34;29.97;;;12.83;;
19251;SDS011;9760;50.944;5.304;2023-04-06T03:50:00;34.97;;;15.77;;
19251;SDS011;9760;50.944;5.304;2023-04-06T03:52:25;29.07;;;13.23;;
19251;SDS011;9760;50.944;5.304;2023-04-06T03:54:51;32.60;;;13.77;;
19251;SDS011;9760;50.944;5.304;2023-04-06T03:57:17;29.17;;;13.00;;
19251;SDS011;9760;50.944;5.304;2023-04-06T03:59:42;31.60;;;13.00;;
19251;SDS011;9760;50.944;5.304;2023-04-06T04:02:08;30.83;;;14.20;;
19251;SDS011;9760;50.944;5.304;2023-04-06T04:04:34;32.47;;;13.17;;
19251;SDS011;9760;50.944;5.304;2023-04-06T04:06:59;32.03;;;14.13;;
19251;SDS011;9760;50.944;5.304;2023-04-06T04:09:25;37.80;;;14.13;;
19251;SDS011;9760;50.944;5.304;2023-04-06T04:11:51;35.03;;;15.20;;
19251;SDS011;9760;50.944;5.304;2023-04-06T04:14:16;33.20;;;15.20;;
19251;SDS011;9760;50.944;5.304;2023-04-06T04:16:42;30.50;;;13.97;;
19251;SDS011;9760;50.944;5.304;2023-04-06T04:19:08;33.17;;;14.80;;
19251;SDS011;9760;50.944;5.304;2023-04-06T04:21:41;28.53;;;13.60;;
19251;SDS011;9760;50.944;5.304;2023-04-06T04:24:08;33.73;;;14.30;;
19251;SDS011;9760;50.944;5.304;2023-04-06T04:26:34;28.27;;;14.57;;
19251;SDS011;9760;50.944;5.304;2023-04-06T04:28:59;23.87;;;12.27;;
19251;SDS011;9760;50.944;5.304;2023-04-06T04:31:25;34.03;;;13.73;;
19251;SDS011;9760;50.944;5.304;2023-04-06T04:33:51;30.70;;;12.80;;
19251;SDS011;9760;50.944;5.304;2023-04-06T04:36:16;36.87;;;13.70;;
19251;SDS011;9760;50.944;5.304;2023-04-06T04:38:42;34.33;;;14.17;;
19251;SDS011;9760;50.944;5.304;2023-04-06T04:41:08;30.30;;;13.20;;
19251;SDS011;9760;50.944;5.304;2023-04-06T04:43:33;28.70;;;13.43;;
19251;SDS011;9760;50.944;5.304;2023-04-06T04:45:59;33.33;;;12.67;;
19251;SDS011;9760;50.944;5.304;2023-04-06T04:48:25;29.20;;;12.13;;
19251;SDS011;9760;50.944;5.304;2023-04-06T04:50:51;29.73;;;13.20;;
19251;SDS011;9760;50.944;5.304;2023-04-06T04:53:16;31.10;;;13.33;;
19251;SDS011;9760;50.944;5.304;2023-04-06T04:55:42;28.93;;;13.47;;
19251;SDS011;9760;50.944;5.304;2023-04-06T04:58:08;34.00;;;12.93;;
19251;SDS011;9760;50.944;5.304;2023-04-06T05:00:35;26.43;;;12.70;;
19251;SDS011;9760;50.944;5.304;2023-04-06T05:03:02;32.03;;;11.57;;
19251;SDS011;9760;50.944;5.304;2023-04-06T05:05:29;23.70;;;11.87;;
19251;SDS011;9760;50.944;5.304;2023-04-06T05:07:56;28.30;;;12.37;;
19251;SDS011;9760;50.944;5.304;2023-04-06T05:10:21;29.43;;;12.20;;
19251;SDS011;9760;50.944;5.304;2023-04-06T05:12:47;26.53;;;12.30;;
19251;SDS011;9760;50.944;5.304;2023-04-06T05:15:13;27.60;;;12.47;;
19251;SDS011;9760;50.944;5.304;2023-04-06T05:17:38;31.40;;;11.77;;
19251;SDS011;9760;50.944;5.304;2023-04-06T05:20:04;22.67;;;10.87;;
19251;SDS011;9760;50.944;5.304;2023-04-06T05:22:30;30.60;;;12.80;;
19251;SDS011;9760;50.944;5.304;2023-04-06T05:24:56;31.00;;;11.63;;
19251;SDS011;9760;50.944;5.304;2023-04-06T05:27:22;32.57;;;12.57;;
19251;SDS011;9760;50.944;5.304;2023-04-06T05:29:48;26.63;;;10.87;;
19251;SDS011;9760;50.944;5.304;2023-04-06T05:32:14;28.63;;;12.03;;
19251;SDS011;9760;50.944;5.304;2023-04-06T05:34:40;29.80;;;11.40;;
19251;SDS011;9760;50.944;5.304;2023-04-06T05:37:05;29.83;;;11.97;;
19251;SDS011;9760;50.944;5.304;2023-04-06T05:39:31;29.97;;;11.77;;
19251;SDS011;9760;50.944;5.304;2023-04-06T05:41:57;24.40;;;11.37;;
19251;SDS011;9760;50.944;5.304;2023-04-06T05:44:23;31.83;;;12.97;;
19251;SDS011;9760;50.944;5.304;2023-04-06T05:46:48;22.90;;;11.40;;
19251;SDS011;9760;50.944;5.304;2023-04-06T05:49:14;22.63;;;10.70;;
19251;SDS011;9760;50.944;5.304;2023-04-06T05:51:40;25.73;;;11.90;;
19251;SDS011;9760;50.944;5.304;2023-04-06T05:54:05;31.03;;;11.47;;
19251;SDS011;9760;50.944;5.304;2023-04-06T05:56:31;22.53;;;11.73;;
19251;SDS011;9760;50.944;5.304;2023-04-06T05:58:57;27.57;;;12.47;;
19251;SDS011;9760;50.944;5.304;2023-04-06T06:01:22;23.57;;;11.40;;
19251;SDS011;9760;50.944;5.304;2023-04-06T06:03:48;28.23;;;11.90;;
19251;SDS011;9760;50.944;5.304;2023-04-06T06:06:13;27.63;;;11.90;;
19251;SDS011;9760;50.944;5.304;2023-04-06T06:08:39;27.80;;;11.97;;
19251;SDS011;9760;50.944;5.304;2023-04-06T06:11:05;28.73;;;12.50;;
19251;SDS011;9760;50.944;5.304;2023-04-06T06:13:31;27.47;;;12.10;;
19251;SDS011;9760;50.944;5.304;2023-04-06T06:15:57;29.50;;;12.40;;
19251;SDS011;9760;50.944;5.304;2023-04-06T06:18:22;26.23;;;10.93;;
19251;SDS011;9760;50.944;5.304;2023-04-06T06:20:48;25.47;;;11.13;;
19251;SDS011;9760;50.944;5.304;2023-04-06T06:23:14;22.70;;;10.77;;
19251;SDS011;9760;50.944;5.304;2023-04-06T06:25:40;29.40;;;11.67;;
19251;SDS011;9760;50.944;5.304;2023-04-06T06:28:05;20.80;;;10.40;;
19251;SDS011;9760;50.944;5.304;2023-04-06T06:30:31;22.93;;;11.27;;
19251;SDS011;9760;50.944;5.304;2023-04-06T06:32:57;31.03;;;10.70;;
19251;SDS011;9760;50.944;5.304;2023-04-06T06:35:22;29.20;;;11.53;;
19251;SDS011;9760;50.944;5.304;2023-04-06T06:37:48;24.97;;;11.03;;
19251;SDS011;9760;50.944;5.304;2023-04-06T06:40:14;22.50;;;11.07;;
19251;SDS011;9760;50.944;5.304;2023-04-06T06:42:41;28.27;;;11.17;;
19251;SDS011;9760;50.944;5.304;2023-04-06T06:45:06;23.93;;;10.53;;
19251;SDS011;9760;50.944;5.304;2023-04-06T06:47:33;21.30;;;10.80;;
19251;SDS011;9760;50.944;5.304;2023-04-06T06:49:58;32.27;;;12.00;;
19251;SDS011;9760;50.944;5.304;2023-04-06T06:52:24;30.40;;;11.40;;
19251;SDS011;9760;50.944;5.304;2023-04-06T06:54:50;31.07;;;10.37;;
19251;SDS011;9760;50.944;5.304;2023-04-06T06:57:16;28.10;;;10.77;;
19251;SDS011;9760;50.944;5.304;2023-04-06T06:59:41;22.63;;;9.83;;
19251;SDS011;9760;50.944;5.304;2023-04-06T07:02:07;21.87;;;10.47;;
19251;SDS011;9760;50.944;5.304;2023-04-06T07:04:33;22.33;;;10.27;;
19251;SDS011;9760;50.944;5.304;2023-04-06T07:06:58;27.30;;;10.53;;
19251;SDS011;9760;50.944;5.304;2023-04-06T07:09:24;26.50;;;11.43;;
19251;SDS011;9760;50.944;5.304;2023-04-06T07:11:51;26.77;;;10.43;;
19251;SDS011;9760;50.944;5.304;2023-04-06T07:14:17;33.93;;;11.67;;
19251;SDS011;9760;50.944;5.304;2023-04-06T07:16:42;36.17;;;11.37;;
19251;SDS011;9760;50.944;5.304;2023-04-06T07:19:10;27.07;;;10.93;;
19251;SDS011;9760;50.944;5.304;2023-04-06T07:21:36;20.67;;;10.40;;
19251;SDS011;9760;50.944;5.304;2023-04-06T07:24:01;21.90;;;10.37;;
19251;SDS011;9760;50.944;5.304;2023-04-06T07:26:27;29.43;;;10.20;;
19251;SDS011;9760;50.944;5.304;2023-04-06T07:28:53;24.30;;;11.47;;
19251;SDS011;9760;50.944;5.304;2023-04-06T07:31:18;32.67;;;10.40;;
19251;SDS011;9760;50.944;5.304;2023-04-06T07:33:45;24.77;;;10.00;;
19251;SDS011;9760;50.944;5.304;2023-04-06T07:36:11;30.27;;;11.60;;
19251;SDS011;9760;50.944;5.304;2023-04-06T07:38:37;22.17;;;10.30;;
19251;SDS011;9760;50.944;5.304;2023-04-06T07:41:03;27.33;;;10.33;;
19251;SDS011;9760;50.944;5.304;2023-04-06T07:43:29;22.93;;;10.37;;
19251;SDS011;9760;50.944;5.304;2023-04-06T07:45:55;22.10;;;10.13;;
19251;SDS011;9760;50.944;5.304;2023-04-06T07:48:22;29.07;;;11.27;;
19251;SDS011;9760;50.944;5.304;2023-04-06T07:50:48;24.33;;;10.80;;
19251;SDS011;9760;50.944;5.304;2023-04-06T07:53:14;27.27;;;10.57;;
19251;SDS011;9760;50.944;5.304;2023-04-06T07:55:39;21.00;;;9.80;;
19251;SDS011;9760;50.944;5.304;2023-04-06T07:58:05;20.67;;;9.53;;
19251;SDS011;9760;50.944;5.304;2023-04-06T08:00:31;23.33;;;9.93;;
19251;SDS011;9760;50.944;5.304;2023-04-06T08:02:58;26.23;;;10.87;;
19251;SDS011;9760;50.944;5.304;2023-04-06T08:05:24;33.43;;;10.97;;
19251;SDS011;9760;50.944;5.304;2023-04-06T08:07:49;25.03;;;11.27;;
19251;SDS011;9760;50.944;5.304;2023-04-06T08:10:15;27.80;;;11.23;;
19251;SDS011;9760;50.944;5.304;2023-04-06T08:12:41;26.57;;;10.10;;
19251;SDS011;9760;50.944;5.304;2023-04-06T08:15:06;22.23;;;10.60;;
19251;SDS011;9760;50.944;5.304;2023-04-06T08:17:32;24.43;;;10.67;;
19251;SDS011;9760;50.944;5.304;2023-04-06T08:19:59;25.33;;;9.97;;
19251;SDS011;9760;50.944;5.304;2023-04-06T08:22:25;25.10;;;10.77;;
19251;SDS011;9760;50.944;5.304;2023-04-06T08:24:51;26.00;;;9.90;;
19251;SDS011;9760;50.944;5.304;2023-04-06T08:27:16;22.93;;;10.10;;
19251;SDS011;9760;50.944;5.304;2023-04-06T08:29:42;28.43;;;10.33;;
19251;SDS011;9760;50.944;5.304;2023-04-06T08:32:08;24.33;;;9.87;;
19251;SDS011;9760;50.944;5.304;2023-04-06T08:34:34;21.97;;;9.50;;
19251;SDS011;9760;50.944;5.304;2023-04-06T08:37:00;24.03;;;9.60;;
19251;SDS011;9760;50.944;5.304;2023-04-06T08:39:26;20.90;;;9.37;;
19251;SDS011;9760;50.944;5.304;2023-04-06T08:41:52;26.70;;;9.80;;
19251;SDS011;9760;50.944;5.304;2023-04-06T08:44:21;21.20;;;9.60;;
19251;SDS011;9760;50.944;5.304;2023-04-06T08:46:47;22.23;;;9.37;;
19251;SDS011;9760;50.944;5.304;2023-04-06T08:49:15;26.97;;;9.47;;
19251;SDS011;9760;50.944;5.304;2023-04-06T08:51:41;18.70;;;9.30;;
19251;SDS011;9760;50.944;5.304;2023-04-06T08:54:07;25.93;;;9.67;;
19251;SDS011;9760;50.944;5.304;2023-04-06T08:56:33;25.57;;;9.37;;
19251;SDS011;9760;50.944;5.304;2023-04-06T08:59:02;22.20;;;9.63;;
19251;SDS011;9760;50.944;5.304;2023-04-06T09:01:28;20.33;;;9.40;;
19251;SDS011;9760;50.944;5.304;2023-04-06T09:03:56;18.23;;;8.60;;
19251;SDS011;9760;50.944;5.304;2023-04-06T09:06:24;23.50;;;8.97;;
19251;SDS011;9760;50.944;5.304;2023-04-06T09:08:51;18.77;;;8.33;;
19251;SDS011;9760;50.944;5.304;2023-04-06T09:11:17;21.90;;;8.20;;
19251;SDS011;9760;50.944;5.304;2023-04-06T09:16:16;16.07;;;7.80;;
19251;SDS011;9760;50.944;5.304;2023-04-06T09:18:42;20.33;;;7.83;;
19251;SDS011;9760;50.944;5.304;2023-04-06T09:21:09;18.33;;;8.13;;
19251;SDS011;9760;50.944;5.304;2023-04-06T09:23:35;37.57;;;9.20;;
19251;SDS011;9760;50.944;5.304;2023-04-06T09:29:08;15.73;;;7.47;;
19251;SDS011;9760;50.944;5.304;2023-04-06T09:31:29;24.93;;;8.07;;
19251;SDS011;9760;50.944;5.304;2023-04-06T09:33:58;20.13;;;7.40;;
19251;SDS011;9760;50.944;5.304;2023-04-06T09:39:03;15.13;;;7.23;;
19251;SDS011;9760;50.944;5.304;2023-04-06T09:41:30;19.93;;;7.83;;
19251;SDS011;9760;50.944;5.304;2023-04-06T09:44:04;13.20;;;6.90;;
19251;SDS011;9760;50.944;5.304;2023-04-06T09:46:42;14.00;;;6.83;;
19251;SDS011;9760;50.944;5.304;2023-04-06T09:49:09;16.20;;;7.73;;
19251;SDS011;9760;50.944;5.304;2023-04-06T09:54:04;17.20;;;8.20;;
19251;SDS011;9760;50.944;5.304;2023-04-06T09:56:51;17.07;;;7.90;;
19251;SDS011;9760;50.944;5.304;2023-04-06T10:02:23;15.17;;;7.70;;
19251;SDS011;9760;50.944;5.304;2023-04-06T10:04:55;25.83;;;8.57;;
19251;SDS011;9760;50.944;5.304;2023-04-06T10:07:24;15.60;;;7.67;;
19251;SDS011;9760;50.944;5.304;2023-04-06T10:09:54;17.50;;;7.33;;
19251;SDS011;9760;50.944;5.304;2023-04-06T10:12:20;19.73;;;8.57;;
19251;SDS011;9760;50.944;5.304;2023-04-06T10:14:46;16.47;;;8.20;;
19251;SDS011;9760;50.944;5.304;2023-04-06T10:17:13;12.77;;;7.23;;
19251;SDS011;9760;50.944;5.304;2023-04-06T10:19:55;16.03;;;7.90;;
19251;SDS011;9760;50.944;5.304;2023-04-06T10:22:37;18.43;;;8.20;;
19251;SDS011;9760;50.944;5.304;2023-04-06T10:25:04;19.17;;;7.93;;
19251;SDS011;9760;50.944;5.304;2023-04-06T10:27:30;15.03;;;7.90;;
19251;SDS011;9760;50.944;5.304;2023-04-06T10:30:04;19.20;;;8.27;;
19251;SDS011;9760;50.944;5.304;2023-04-06T10:35:10;14.73;;;7.47;;
19251;SDS011;9760;50.944;5.304;2023-04-06T10:37:51;18.20;;;8.60;;
19251;SDS011;9760;50.944;5.304;2023-04-06T10:40:24;19.43;;;8.67;;
19251;SDS011;9760;50.944;5.304;2023-04-06T10:42:54;17.83;;;9.37;;
19251;SDS011;9760;50.944;5.304;2023-04-06T10:45:31;18.77;;;8.97;;
19251;SDS011;9760;50.944;5.304;2023-04-06T10:47:57;16.50;;;8.47;;
19251;SDS011;9760;50.944;5.304;2023-04-06T10:50:22;16.93;;;8.43;;
19251;SDS011;9760;50.944;5.304;2023-04-06T10:53:02;18.73;;;8.87;;
19251;SDS011;9760;50.944;5.304;2023-04-06T10:55:28;18.17;;;7.90;;
19251;SDS011;9760;50.944;5.304;2023-04-06T10:57:54;16.23;;;8.07;;
19251;SDS011;9760;50.944;5.304;2023-04-06T11:00:20;18.87;;;6.67;;
19251;SDS011;9760;50.944;5.304;2023-04-06T11:02:46;13.30;;;6.70;;
19251;SDS011;9760;50.944;5.304;2023-04-06T11:05:12;13.00;;;6.93;;
19251;SDS011;9760;50.944;5.304;2023-04-06T11:07:39;16.43;;;6.77;;
19251;SDS011;9760;50.944;5.304;2023-04-06T11:10:05;13.97;;;6.73;;
19251;SDS011;9760;50.944;5.304;2023-04-06T11:12:31;16.63;;;7.10;;
19251;SDS011;9760;50.944;5.304;2023-04-06T11:14:58;13.67;;;7.20;;
19251;SDS011;9760;50.944;5.304;2023-04-06T11:17:33;17.17;;;6.67;;
19251;SDS011;9760;50.944;5.304;2023-04-06T11:20:00;14.70;;;6.50;;
19251;SDS011;9760;50.944;5.304;2023-04-06T11:22:27;14.33;;;7.03;;
19251;SDS011;9760;50.944;5.304;2023-04-06T11:25:04;22.00;;;7.63;;
19251;SDS011;9760;50.944;5.304;2023-04-06T11:27:33;13.50;;;6.53;;
19251;SDS011;9760;50.944;5.304;2023-04-06T11:30:00;13.57;;;6.90;;
19251;SDS011;9760;50.944;5.304;2023-04-06T11:32:26;15.73;;;7.07;;
19251;SDS011;9760;50.944;5.304;2023-04-06T11:34:52;15.37;;;6.27;;
19251;SDS011;9760;50.944;5.304;2023-04-06T11:37:18;17.13;;;6.77;;
19251;SDS011;9760;50.944;5.304;2023-04-06T11:39:47;13.97;;;6.60;;
19251;SDS011;9760;50.944;5.304;2023-04-06T11:42:20;15.20;;;6.43;;
19251;SDS011;9760;50.944;5.304;2023-04-06T11:45:01;12.73;;;6.57;;
19251;SDS011;9760;50.944;5.304;2023-04-06T11:47:28;15.70;;;7.83;;
19251;SDS011;9760;50.944;5.304;2023-04-06T11:49:55;18.43;;;7.47;;
19251;SDS011;9760;50.944;5.304;2023-04-06T11:52:30;13.63;;;7.07;;
19251;SDS011;9760;50.944;5.304;2023-04-06T11:54:56;15.00;;;7.00;;
19251;SDS011;9760;50.944;5.304;2023-04-06T11:57:22;17.40;;;7.57;;
19251;SDS011;9760;50.944;5.304;2023-04-06T11:59:51;14.17;;;7.27;;
19251;SDS011;9760;50.944;5.304;2023-04-06T12:02:17;14.53;;;7.53;;
19251;SDS011;9760;50.944;5.304;2023-04-06T12:04:43;16.33;;;8.23;;
19251;SDS011;9760;50.944;5.304;2023-04-06T12:07:09;14.60;;;7.93;;
19251;SDS011;9760;50.944;5.304;2023-04-06T12:09:35;18.40;;;7.10;;
19251;SDS011;9760;50.944;5.304;2023-04-06T12:12:02;14.13;;;7.47;;
19251;SDS011;9760;50.944;5.304;2023-04-06T12:14:28;18.00;;;6.90;;
19251;SDS011;9760;50.944;5.304;2023-04-06T12:16:55;15.17;;;6.80;;
19251;SDS011;9760;50.944;5.304;2023-04-06T12:19:24;12.97;;;6.87;;
19251;SDS011;9760;50.944;5.304;2023-04-06T12:21:51;13.77;;;6.87;;
19251;SDS011;9760;50.944;5.304;2023-04-06T12:24:18;15.17;;;7.73;;
19251;SDS011;9760;50.944;5.304;2023-04-06T12:26:44;17.07;;;7.77;;
19251;SDS011;9760;50.944;5.304;2023-04-06T12:29:10;13.60;;;7.73;;
19251;SDS011;9760;50.944;5.304;2023-04-06T12:31:38;14.40;;;6.83;;
19251;SDS011;9760;50.944;5.304;2023-04-06T12:34:05;16.17;;;6.87;;
19251;SDS011;9760;50.944;5.304;2023-04-06T12:36:32;14.03;;;7.07;;
19251;SDS011;9760;50.944;5.304;2023-04-06T12:38:58;12.77;;;6.63;;
19251;SDS011;9760;50.944;5.304;2023-04-06T12:41:26;16.17;;;8.10;;
19251;SDS011;9760;50.944;5.304;2023-04-06T12:43:52;14.93;;;7.90;;
19251;SDS011;9760;50.944;5.304;2023-04-06T12:46:18;14.83;;;7.37;;
19251;SDS011;9760;50.944;5.304;2023-04-06T12:48:44;15.97;;;7.83;;
19251;SDS011;9760;50.944;5.304;2023-04-06T12:51:09;16.50;;;7.70;;
19251;SDS011;9760;50.944;5.304;2023-04-06T12:53:35;18.97;;;8.20;;
19251;SDS011;9760;50.944;5.304;2023-04-06T12:56:01;13.57;;;7.70;;
19251;SDS011;9760;50.944;5.304;2023-04-06T12:58:27;18.27;;;8.20;;
19251;SDS011;9760;50.944;5.304;2023-04-06T13:00:54;16.13;;;8.20;;
19251;SDS011;9760;50.944;5.304;2023-04-06T13:03:21;14.47;;;8.33;;
19251;SDS011;9760;50.944;5.304;2023-04-06T13:05:47;15.37;;;7.53;;
19251;SDS011;9760;50.944;5.304;2023-04-06T13:08:17;15.87;;;8.77;;
19251;SDS011;9760;50.944;5.304;2023-04-06T13:10:47;18.17;;;8.53;;
19251;SDS011;9760;50.944;5.304;2023-04-06T13:13:14;17.77;;;8.20;;
19251;SDS011;9760;50.944;5.304;2023-04-06T13:15:40;17.30;;;8.43;;
19251;SDS011;9760;50.944;5.304;2023-04-06T13:18:06;15.97;;;8.53;;
19251;SDS011;9760;50.944;5.304;2023-04-06T13:20:32;15.23;;;7.83;;
19251;SDS011;9760;50.944;5.304;2023-04-06T13:22:58;13.43;;;7.53;;
19251;SDS011;9760;50.944;5.304;2023-04-06T13:25:24;14.90;;;7.53;;
19251;SDS011;9760;50.944;5.304;2023-04-06T13:27:49;13.80;;;7.73;;
19251;SDS011;9760;50.944;5.304;2023-04-06T13:30:15;13.37;;;7.37;;
19251;SDS011;9760;50.944;5.304;2023-04-06T13:32:41;14.87;;;7.43;;
19251;SDS011;9760;50.944;5.304;2023-04-06T13:35:07;11.30;;;6.87;;
19251;SDS011;9760;50.944;5.304;2023-04-06T13:37:33;16.43;;;8.10;;
19251;SDS011;9760;50.944;5.304;2023-04-06T13:39:59;13.30;;;7.53;;
19251;SDS011;9760;50.944;5.304;2023-04-06T13:42:26;11.13;;;7.23;;
19251;SDS011;9760;50.944;5.304;2023-04-06T13:44:52;13.13;;;7.47;;
19251;SDS011;9760;50.944;5.304;2023-04-06T13:47:18;13.23;;;7.50;;
19251;SDS011;9760;50.944;5.304;2023-04-06T13:49:45;17.50;;;7.37;;
19251;SDS011;9760;50.944;5.304;2023-04-06T13:52:11;16.00;;;7.47;;
19251;SDS011;9760;50.944;5.304;2023-04-06T13:54:37;14.00;;;7.80;;
19251;SDS011;9760;50.944;5.304;2023-04-06T13:57:03;17.53;;;8.07;;
19251;SDS011;9760;50.944;5.304;2023-04-06T13:59:33;13.47;;;7.80;;
19251;SDS011;9760;50.944;5.304;2023-04-06T14:02:00;13.73;;;7.73;;
19251;SDS011;9760;50.944;5.304;2023-04-06T14:04:27;16.37;;;7.47;;
19251;SDS011;9760;50.944;5.304;2023-04-06T14:06:53;15.07;;;7.70;;
19251;SDS011;9760;50.944;5.304;2023-04-06T14:09:18;13.23;;;7.20;;
19251;SDS011;9760;50.944;5.304;2023-04-06T14:11:44;18.67;;;8.50;;
19251;SDS011;9760;50.944;5.304;2023-04-06T14:14:10;15.20;;;7.77;;
19251;SDS011;9760;50.944;5.304;2023-04-06T14:16:35;15.27;;;7.70;;
19251;SDS011;9760;50.944;5.304;2023-04-06T14:19:01;14.47;;;7.77;;
19251;SDS011;9760;50.944;5.304;2023-04-06T14:21:27;14.70;;;7.53;;
19251;SDS011;9760;50.944;5.304;2023-04-06T14:23:53;12.80;;;7.37;;
19251;SDS011;9760;50.944;5.304;2023-04-06T14:26:18;14.83;;;7.57;;
19251;SDS011;9760;50.944;5.304;2023-04-06T14:28:44;14.10;;;7.87;;
19251;SDS011;9760;50.944;5.304;2023-04-06T14:31:14;15.60;;;8.30;;
19251;SDS011;9760;50.944;5.304;2023-04-06T14:33:41;17.33;;;8.33;;
19251;SDS011;9760;50.944;5.304;2023-04-06T14:36:07;18.40;;;9.20;;
19251;SDS011;9760;50.944;5.304;2023-04-06T14:38:34;16.00;;;8.67;;
19251;SDS011;9760;50.944;5.304;2023-04-06T14:40:59;16.03;;;8.93;;
19251;SDS011;9760;50.944;5.304;2023-04-06T14:43:25;21.83;;;9.87;;
19251;SDS011;9760;50.944;5.304;2023-04-06T14:45:51;16.67;;;8.90;;
19251;SDS011;9760;50.944;5.304;2023-04-06T14:48:20;19.90;;;10.17;;
19251;SDS011;9760;50.944;5.304;2023-04-06T14:50:52;20.50;;;9.83;;
19251;SDS011;9760;50.944;5.304;2023-04-06T14:53:22;19.67;;;11.07;;